createdAt,value
2023-01-20T12:02:35.981Z,1.59
2023-01-20T12:06:51.615Z,1.71
2023-01-20T12:10:59.857Z,1.69
2023-01-20T12:15:13.259Z,1.68
2023-01-20T12:19:20.521Z,1.71
2023-01-20T12:23:46.721Z,1.69
2023-01-20T12:27:55.052Z,1.65
2023-01-20T12:32:00.672Z,1.52
2023-01-20T12:36:04.484Z,1.42
2023-01-20T12:40:49.161Z,1.40
2023-01-20T12:45:31.521Z,1.35
2023-01-20T12:49:40.136Z,1.25
2023-01-20T12:54:06.880Z,1.21
2023-01-20T12:58:19.499Z,1.16
2023-01-20T13:02:44.832Z,1.16
2023-01-20T13:07:05.874Z,1.15
2023-01-20T13:11:15.864Z,1.16
2023-01-20T13:15:27.892Z,1.19
2023-01-20T13:19:36.642Z,1.22
2023-01-20T13:23:39.174Z,1.15
2023-01-20T13:27:44.081Z,1.09
2023-01-20T13:31:46.714Z,1.02
2023-01-20T13:35:52.043Z,0.94
2023-01-20T13:39:57.602Z,0.90
2023-01-20T13:44:00.376Z,0.86
2023-01-20T13:48:05.487Z,0.84
2023-01-20T13:52:11.392Z,0.83
2023-01-20T13:56:29.673Z,0.80
2023-01-20T14:00:34.345Z,0.74
2023-01-20T14:04:45.418Z,0.67
2023-01-20T14:08:50.159Z,0.63
2023-01-20T14:12:53.027Z,0.58
2023-01-20T14:16:56.633Z,0.57
2023-01-20T14:21:12.818Z,0.57
2023-01-20T14:25:28.743Z,0.58
2023-01-20T14:29:31.856Z,0.61
2023-01-20T14:33:34.007Z,0.62
2023-01-20T14:37:39.147Z,0.62
2023-01-20T14:42:03.233Z,0.61
2023-01-20T14:46:06.134Z,0.59
2023-01-20T14:50:31.918Z,0.61
2023-01-20T14:54:37.487Z,0.60
2023-01-20T14:58:48.042Z,0.58
2023-01-20T15:03:10.268Z,0.55
2023-01-20T15:07:24.353Z,0.54
2023-01-20T15:11:46.397Z,0.49
2023-01-20T15:15:48.790Z,0.47
2023-01-20T15:19:51.033Z,0.46
2023-01-20T15:23:53.737Z,0.44
2023-01-20T15:27:56.994Z,0.43
2023-01-20T15:32:02.924Z,0.43
2023-01-20T15:36:36.707Z,0.43
2023-01-20T15:40:51.504Z,0.46
2023-01-20T15:44:57.571Z,0.45
2023-01-20T15:49:01.685Z,0.46
2023-01-20T15:53:05.948Z,0.46
2023-01-20T15:57:14.013Z,0.44
2023-01-20T16:01:24.655Z,0.46
2023-01-20T16:05:27.362Z,0.46
2023-01-20T16:09:33.429Z,0.46
2023-01-20T16:13:36.575Z,0.49
2023-01-20T16:17:38.609Z,0.51
2023-01-20T16:21:41.362Z,0.49
2023-01-20T16:25:48.891Z,0.48
2023-01-20T16:29:54.101Z,0.50
2023-01-20T16:33:56.284Z,0.49
2023-01-20T16:37:58.857Z,0.50
2023-01-20T16:42:01.146Z,0.53
2023-01-20T16:46:03.706Z,0.53
2023-01-20T16:50:05.907Z,0.48
2023-01-20T16:54:09.339Z,0.45
2023-01-20T16:58:13.419Z,0.44
2023-01-20T17:02:17.017Z,0.42
2023-01-20T17:06:40.965Z,0.41
2023-01-20T17:10:47.441Z,0.43
2023-01-20T17:14:49.990Z,0.46
2023-01-20T17:18:54.353Z,0.46
2023-01-20T17:22:56.530Z,0.46
2023-01-20T17:26:59.246Z,0.45
2023-01-20T17:31:07.168Z,0.46
2023-01-20T17:35:11.430Z,0.48
2023-01-20T17:39:16.655Z,0.50
2023-01-20T17:43:23.680Z,0.49
2023-01-20T17:47:32.870Z,0.51
2023-01-20T17:51:45.299Z,0.52
2023-01-20T17:56:15.268Z,0.53
2023-01-20T18:00:48.890Z,0.55
2023-01-20T18:04:57.694Z,0.56
2023-01-20T18:09:22.519Z,0.57
2023-01-20T18:14:08.852Z,0.60
2023-01-20T18:18:55.471Z,0.58
2023-01-20T18:23:31.630Z,0.60
2023-01-20T18:28:06.445Z,0.59
2023-01-20T18:32:24.190Z,0.58
2023-01-20T18:36:43.506Z,0.57
2023-01-20T18:41:10.373Z,0.59
2023-01-20T18:45:47.498Z,0.57
2023-01-20T18:50:16.467Z,0.57
2023-01-20T18:54:39.949Z,0.56
2023-01-20T18:58:47.002Z,0.55
2023-01-20T19:02:52.277Z,0.54
2023-01-20T19:06:57.091Z,0.53
2023-01-20T19:11:09.232Z,0.50
2023-01-20T19:15:13.685Z,0.49
2023-01-20T19:19:18.555Z,0.48
2023-01-20T19:23:20.717Z,0.45
2023-01-20T19:27:26.139Z,0.44
2023-01-20T19:31:31.889Z,0.41
2023-01-20T19:35:34.652Z,0.42
2023-01-20T19:39:37.091Z,0.42
2023-01-20T19:43:40.130Z,0.42
2023-01-20T19:47:42.468Z,0.42
2023-01-20T19:51:44.585Z,0.40
2023-01-20T19:55:48.746Z,0.38
2023-01-20T19:59:51.309Z,0.39
2023-01-20T20:03:54.555Z,0.39
2023-01-20T20:07:59.028Z,0.38
2023-01-20T20:12:06.035Z,0.38
2023-01-20T20:16:09.616Z,0.38
2023-01-20T20:20:15.169Z,0.38
2023-01-20T20:24:18.897Z,0.34
2023-01-20T20:28:29.169Z,0.31
2023-01-20T20:32:33.556Z,0.30
2023-01-20T20:36:40.205Z,0.32
2023-01-20T20:40:44.706Z,0.32
2023-01-20T20:44:50.839Z,0.34
2023-01-20T20:49:01.793Z,0.33
2023-01-20T20:53:04.518Z,0.33
2023-01-20T20:57:09.428Z,0.31
2023-01-20T21:01:16.545Z,0.31
2023-01-20T21:05:19.019Z,0.29
2023-01-20T21:09:24.152Z,0.28
2023-01-20T21:13:28.901Z,0.27
2023-01-20T21:17:30.962Z,0.28
2023-01-20T21:21:33.526Z,0.29
2023-01-20T21:25:35.543Z,0.28
2023-01-20T21:29:38.659Z,0.28
2023-01-20T21:33:42.236Z,0.27
2023-01-20T21:37:44.397Z,0.26
2023-01-20T21:41:46.790Z,0.27
2023-01-20T21:45:59.726Z,0.24
2023-01-20T21:50:21.149Z,0.23
2023-01-20T21:54:29.230Z,0.23
2023-01-20T21:58:31.987Z,0.24
2023-01-20T22:02:45.884Z,0.24
2023-01-20T22:06:48.794Z,0.21
2023-01-20T22:11:00.877Z,0.18
2023-01-20T22:15:05.565Z,0.19
2023-01-20T22:23:35.149Z,0.20
2023-01-20T22:27:42.465Z,0.17
2023-01-20T22:31:51.114Z,0.15
2023-01-20T22:35:58.017Z,0.15
2023-01-20T22:40:06.542Z,0.16
2023-01-20T22:44:09.435Z,0.15
2023-01-20T22:48:16.219Z,0.17
2023-01-20T22:52:19.358Z,0.19
2023-01-20T22:56:25.993Z,0.21
2023-01-20T23:00:30.563Z,0.23
2023-01-20T23:04:39.598Z,0.24
2023-01-20T23:08:41.662Z,0.24
2023-01-20T23:12:48.954Z,0.23
2023-01-20T23:16:53.976Z,0.25
2023-01-20T23:20:59.746Z,0.26
2023-01-20T23:25:01.807Z,0.28
2023-01-20T23:29:04.834Z,0.28
2023-01-20T23:33:07.645Z,0.28
2023-01-20T23:37:09.578Z,0.26
2023-01-20T23:41:13.707Z,0.25
2023-01-20T23:45:16.896Z,0.23
2023-01-20T23:49:21.091Z,0.24
2023-01-20T23:53:24.964Z,0.24
2023-01-20T23:57:27.136Z,0.24
